Time;durP1;ratioP1;P1;durP2;ratioP2;P2;SDS_P1;SDS_P2;PMS_P1;PMS_P2;Temp;Humidity;BMP_temperature;BMP_pressure;BME280_temperature;BME280_humidity;BME280_pressure;Samples;Min_cycle;Max_cycle;Signal;HPM_P1;HPM_P2
2024/03/04 00:00:50;;;;;;;6.10;2.00;;;;;;;1.33;100.00;100212.70;105831;1262;67978;-57
2024/03/04 00:03:18;;;;;;;4.00;1.60;;;;;;;1.35;100.00;100213.76;108823;1257;72763;-57
2024/03/04 00:05:45;;;;;;;3.40;1.50;;;;;;;1.36;100.00;100212.31;108879;1257;59659;-56
2024/03/04 00:08:14;;;;;;;3.90;2.20;;;;;;;1.38;100.00;100207.54;108758;1257;58870;-55
2024/03/04 00:10:43;;;;;;;4.40;2.10;;;;;;;1.38;100.00;100208.95;108972;1257;73017;-55
2024/03/04 00:13:10;;;;;;;9.80;1.70;;;;;;;1.38;100.00;100207.53;108674;1257;67151;-55
2024/03/04 00:15:38;;;;;;;4.50;1.60;;;;;;;1.39;100.00;100209.30;108785;1257;74311;-56
2024/03/04 00:18:06;;;;;;;4.30;1.90;;;;;;;1.40;100.00;100206.99;107329;1257;60275;-56
2024/03/04 00:20:34;;;;;;;3.60;1.60;;;;;;;1.40;100.00;100201.88;108724;1256;60010;-57
2024/03/04 00:23:01;;;;;;;5.60;2.20;;;;;;;1.39;100.00;100204.35;107703;1257;72144;-56
2024/03/04 00:25:29;;;;;;;5.00;1.40;;;;;;;1.36;100.00;100204.55;105928;1257;65511;-56
2024/03/04 00:27:56;;;;;;;7.20;1.90;;;;;;;1.34;100.00;100208.80;105959;1256;72533;-57
2024/03/04 00:30:27;;;;;;;5.20;1.60;;;;;;;1.33;100.00;100207.04;108808;1257;60042;-56
2024/03/04 00:32:54;;;;;;;2.80;1.60;;;;;;;1.33;100.00;100208.98;106768;1260;60546;-56
2024/03/04 00:35:21;;;;;;;4.10;1.60;;;;;;;1.33;100.00;100207.92;105925;1262;73955;-56
2024/03/04 00:37:49;;;;;;;3.40;1.60;;;;;;;1.36;100.00;100206.84;105935;1257;67619;-56
2024/03/04 00:40:16;;;;;;;4.10;1.90;;;;;;;1.38;100.00;100199.57;105965;1263;73222;-57
2024/03/04 00:42:43;;;;;;;3.90;1.90;;;;;;;1.38;100.00;100195.52;105971;1259;60890;-56
2024/03/04 00:45:12;;;;;;;7.40;1.70;;;;;;;1.39;100.00;100198.52;105909;1257;62169;-57
2024/03/04 00:47:39;;;;;;;4.30;1.90;;;;;;;1.38;100.00;100197.98;106280;1261;72010;-56
2024/03/04 00:50:08;;;;;;;4.30;2.10;;;;;;;1.38;100.00;100191.09;106825;1261;66730;-56
2024/03/04 00:52:37;;;;;;;4.70;1.80;;;;;;;1.37;100.00;100188.25;105845;1257;72715;-57
2024/03/04 00:55:06;;;;;;;3.80;1.90;;;;;;;1.35;100.00;100189.17;106076;1258;61057;-57
2024/03/04 00:57:33;;;;;;;3.90;1.80;;;;;;;1.32;100.00;100192.71;106543;1262;61519;-56
2024/03/04 01:00:00;;;;;;;6.40;2.40;;;;;;;1.29;100.00;100195.37;105866;1273;73851;-56
2024/03/04 01:02:28;;;;;;;3.50;1.50;;;;;;;1.25;100.00;100193.27;105976;1257;67994;-57
2024/03/04 01:04:55;;;;;;;6.40;2.20;;;;;;;1.22;100.00;100196.29;105897;1257;75351;-57
2024/03/04 01:07:23;;;;;;;4.80;2.00;;;;;;;1.20;100.00;100195.95;106110;1263;60824;-57
2024/03/04 01:09:50;;;;;;;3.30;1.20;;;;;;;1.19;100.00;100196.48;105961;1257;60453;-57
2024/03/04 01:12:17;;;;;;;3.40;1.50;;;;;;;1.20;100.00;100195.75;105777;1263;73685;-57
2024/03/04 01:14:45;;;;;;;3.60;1.80;;;;;;;1.19;100.00;100194.36;105860;1263;65728;-56
2024/03/04 01:17:16;;;;;;;3.80;1.70;;;;;;;1.18;100.00;100195.08;105868;1263;72766;-56
2024/03/04 01:19:47;;;;;;;4.40;1.40;;;;;;;1.16;100.00;100196.32;105908;1262;60546;-56
2024/03/04 01:22:18;;;;;;;4.60;2.00;;;;;;;1.16;100.00;100199.85;106067;1257;60162;-56
2024/03/04 01:24:49;;;;;;;4.40;2.30;;;;;;;1.15;100.00;100194.90;105942;1260;75121;-56
2024/03/04 01:27:17;;;;;;;5.90;2.30;;;;;;;1.11;100.00;100194.73;106109;1263;65832;-57
2024/03/04 01:29:45;;;;;;;3.20;2.00;;;;;;;1.09;100.00;100198.98;105844;1257;73026;-55
2024/03/04 01:32:13;;;;;;;3.80;1.90;;;;;;;1.05;100.00;100194.57;105782;1273;60486;-56
2024/03/04 01:34:40;;;;;;;5.90;2.50;;;;;;;1.01;100.00;100199.90;105845;1260;60555;-56
2024/03/04 01:37:08;;;;;;;6.20;2.10;;;;;;;0.98;100.00;100199.55;105843;1263;74301;-58
2024/03/04 01:39:36;;;;;;;3.40;1.70;;;;;;;0.95;100.00;100203.95;105798;1257;65807;-56
2024/03/04 01:42:03;;;;;;;2.40;1.60;;;;;;;0.94;100.00;100206.27;105870;1272;71846;-55
2024/03/04 01:44:33;;;;;;;3.40;2.10;;;;;;;0.93;100.00;100201.69;105854;1257;60860;-56
2024/03/04 01:47:07;;;;;;;2.80;1.50;;;;;;;0.93;100.00;100206.27;105947;1272;60538;-57
2024/03/04 01:49:35;;;;;;;3.50;1.90;;;;;;;0.94;100.00;100202.55;106245;1261;73907;-55
2024/03/04 01:52:05;;;;;;;6.10;1.70;;;;;;;0.97;100.00;100204.84;105858;1263;66098;-56
2024/03/04 01:54:33;;;;;;;9.00;2.00;;;;;;;0.99;100.00;100203.08;106088;1262;72773;-57
2024/03/04 01:57:01;;;;;;;5.30;1.60;;;;;;;1.02;100.00;100205.36;105979;1264;63360;-56
2024/03/04 01:59:28;;;;;;;5.50;1.80;;;;;;;1.05;100.00;100200.41;105803;1266;62191;-56
2024/03/04 02:01:55;;;;;;;2.60;1.60;;;;;;;1.07;100.00;100205.89;105773;1266;74285;-57
2024/03/04 02:04:23;;;;;;;4.20;1.90;;;;;;;1.07;100.00;100202.35;105780;1265;68949;-57
2024/03/04 02:06:50;;;;;;;8.70;2.30;;;;;;;1.07;100.00;100205.54;105768;1265;70836;-55
2024/03/04 02:09:18;;;;;;;5.80;1.90;;;;;;;1.05;100.00;100197.75;105795;1257;61464;-56
2024/03/04 02:11:45;;;;;;;6.60;2.60;;;;;;;1.02;100.00;100200.95;105827;1262;62501;-56
2024/03/04 02:16:59;;;;;;;4.20;2.00;;;;;;;0.97;100.00;100221.09;102721;1292;601252;-58
2024/03/04 02:19:27;;;;;;;5.70;1.90;;;;;;;0.94;100.00;100222.88;105202;1273;61745;-56
2024/03/04 02:22:01;;;;;;;3.60;1.80;;;;;;;0.94;100.00;100221.98;105304;1283;62197;-56
2024/03/04 02:24:28;;;;;;;4.30;1.70;;;;;;;0.96;100.00;100224.10;105527;1267;70940;-57
2024/03/04 02:26:56;;;;;;;2.80;1.50;;;;;;;0.98;100.00;100225.88;105412;1267;67499;-56
2024/03/04 02:29:23;;;;;;;4.30;1.40;;;;;;;0.99;100.00;100229.59;105290;1276;72748;-55
2024/03/04 02:31:51;;;;;;;4.00;2.00;;;;;;;1.03;100.00;100231.16;105258;1264;61480;-55
2024/03/04 02:34:18;;;;;;;6.20;1.70;;;;;;;1.06;100.00;100230.27;105768;1264;60543;-55
2024/03/04 02:36:46;;;;;;;7.30;2.30;;;;;;;1.09;100.00;100230.81;105390;1268;72302;-55
2024/03/04 02:39:15;;;;;;;4.60;1.90;;;;;;;1.11;100.00;100225.48;105366;1264;66074;-55
2024/03/04 02:41:42;;;;;;;4.20;1.90;;;;;;;1.11;100.00;100228.13;105354;1264;71624;-55
2024/03/04 02:44:10;;;;;;;5.50;1.80;;;;;;;1.10;100.00;100229.39;105581;1264;59755;-56
2024/03/04 02:46:39;;;;;;;4.80;2.30;;;;;;;1.09;100.00;100233.46;105446;1262;60308;-56
2024/03/04 02:49:07;;;;;;;4.00;1.60;;;;;;;1.06;100.00;100235.94;105796;1264;71610;-55
2024/03/04 02:51:34;;;;;;;5.70;2.50;;;;;;;1.03;100.00;100238.76;108511;1263;66232;-55
2024/03/04 02:54:02;;;;;;;4.20;2.10;;;;;;;1.00;100.00;100237.55;108485;1262;72719;-55
2024/03/04 02:56:30;;;;;;;4.40;1.90;;;;;;;0.98;100.00;100239.66;108453;1263;61414;-55
2024/03/04 02:58:57;;;;;;;6.50;2.40;;;;;;;0.98;100.00;100237.71;108688;1263;58063;-56
2024/03/04 03:01:26;;;;;;;5.50;1.90;;;;;;;0.98;100.00;100235.06;106325;1260;73461;-57
2024/03/04 03:03:54;;;;;;;4.40;2.10;;;;;;;1.00;100.00;100235.07;108788;1254;67546;-57
2024/03/04 03:06:21;;;;;;;6.00;2.20;;;;;;;1.02;100.00;100229.40;106012;1257;72811;-55
2024/03/04 03:08:49;;;;;;;4.40;1.60;;;;;;;1.05;100.00;100231.69;109025;1254;59728;-55
2024/03/04 03:11:16;;;;;;;3.90;2.20;;;;;;;1.07;100.00;100233.98;109080;1256;60206;-54
2024/03/04 03:13:47;;;;;;;6.60;1.90;;;;;;;1.06;100.00;100234.52;108964;1257;71754;-57
2024/03/04 03:16:18;;;;;;;4.60;2.00;;;;;;;1.08;100.00;100230.80;108965;1257;66785;-56
2024/03/04 03:18:48;;;;;;;4.90;2.30;;;;;;;1.10;100.00;100226.56;108209;1257;71436;-57
2024/03/04 03:21:16;;;;;;;4.20;2.20;;;;;;;1.11;100.00;100223.72;109024;1254;59113;-56
2024/03/04 03:23:44;;;;;;;8.30;2.40;;;;;;;1.11;100.00;100225.31;108996;1256;58154;-56
2024/03/04 03:26:12;;;;;;;5.30;2.10;;;;;;;1.11;100.00;100234.33;109163;1257;73531;-55
2024/03/04 03:28:42;;;;;;;5.80;1.80;;;;;;;1.12;100.00;100233.44;108934;1255;67538;-55
2024/03/04 03:31:10;;;;;;;4.70;2.00;;;;;;;1.12;100.00;100232.02;109060;1254;71789;-56
2024/03/04 03:33:37;;;;;;;6.90;2.20;;;;;;;1.11;100.00;100230.25;108955;1256;61385;-54
2024/03/04 03:36:05;;;;;;;4.00;1.70;;;;;;;1.12;100.00;100232.20;108493;1255;60109;-55
2024/03/04 03:38:33;;;;;;;7.20;1.70;;;;;;;1.13;100.00;100232.20;105958;1261;71445;-56
2024/03/04 03:41:01;;;;;;;3.70;1.90;;;;;;;1.15;100.00;100234.85;105943;1261;67272;-58
2024/03/04 03:43:28;;;;;;;3.70;2.10;;;;;;;1.17;100.00;100229.54;105972;1256;72715;-55
2024/03/04 03:45:55;;;;;;;4.00;1.90;;;;;;;1.20;100.00;100228.82;106276;1260;59936;-58
2024/03/04 03:48:25;;;;;;;5.00;2.60;;;;;;;1.21;100.00;100232.35;106050;1259;59675;-55
2024/03/04 03:50:53;;;;;;;3.00;2.20;;;;;;;1.21;100.00;100234.12;106366;1259;70799;-56
2024/03/04 03:53:22;;;;;;;6.70;2.20;;;;;;;1.20;100.00;100236.96;105987;1260;67063;-56
2024/03/04 03:55:51;;;;;;;5.50;2.40;;;;;;;1.17;100.00;100239.98;106032;1256;72419;-55
2024/03/04 03:58:18;;;;;;;7.00;2.60;;;;;;;1.14;100.00;100241.39;106043;1272;59685;-56
2024/03/04 04:00:45;;;;;;;4.50;2.00;;;;;;;1.11;100.00;100242.64;106413;1256;59516;-58
2024/03/04 04:03:13;;;;;;;5.60;2.10;;;;;;;1.09;100.00;100245.13;106223;1257;72682;-56
2024/03/04 04:05:41;;;;;;;3.50;2.10;;;;;;;1.07;100.00;100245.83;105986;1259;65727;-56
2024/03/04 04:08:08;;;;;;;6.40;1.60;;;;;;;1.05;100.00;100244.06;105963;1269;71557;-58
2024/03/04 04:10:35;;;;;;;6.60;2.10;;;;;;;1.04;100.00;100246.71;105995;1264;59682;-56
2024/03/04 04:13:03;;;;;;;6.70;2.30;;;;;;;1.04;100.00;100255.02;106003;1257;60445;-56
2024/03/04 04:15:31;;;;;;;5.50;2.50;;;;;;;1.03;100.00;100252.55;105926;1257;72114;-55
2024/03/04 04:17:59;;;;;;;5.50;2.20;;;;;;;1.02;100.00;100246.53;106019;1257;66972;-56
2024/03/04 04:20:27;;;;;;;8.20;2.50;;;;;;;1.01;100.00;100251.15;106080;1270;74863;-55
2024/03/04 04:22:54;;;;;;;6.50;2.50;;;;;;;0.98;100.00;100250.61;105974;1257;59762;-55
2024/03/04 04:25:21;;;;;;;6.80;2.60;;;;;;;0.94;100.00;100253.97;106010;1260;60079;-56
2024/03/04 04:27:49;;;;;;;7.10;2.30;;;;;;;0.91;100.00;100254.87;105967;1257;73077;-54
2024/03/04 04:30:17;;;;;;;7.70;2.80;;;;;;;0.87;100.00;100255.58;105918;1260;67108;-58
2024/03/04 04:32:44;;;;;;;4.80;2.30;;;;;;;0.84;100.00;100256.83;105882;1260;73144;-57
2024/03/04 04:35:12;;;;;;;6.80;2.80;;;;;;;0.81;100.00;100262.83;106034;1257;60895;-57
2024/03/04 04:37:41;;;;;;;7.00;2.10;;;;;;;0.81;100.00;100261.77;105912;1260;60111;-56
2024/03/04 04:40:13;;;;;;;3.80;2.30;;;;;;;0.81;100.00;100267.07;106381;1256;71824;-56
2024/03/04 04:42:40;;;;;;;3.80;2.00;;;;;;;0.82;100.00;100266.72;106579;1257;65871;-56
2024/03/04 04:45:08;;;;;;;9.40;2.20;;;;;;;0.85;100.00;100268.84;106012;1256;71536;-57
2024/03/04 04:47:35;;;;;;;7.30;2.40;;;;;;;0.86;100.00;100272.00;106048;1260;60175;-55
2024/03/04 04:50:03;;;;;;;7.30;3.20;;;;;;;0.87;100.00;100272.00;106064;1260;60090;-56
2024/03/04 04:52:31;;;;;;;6.40;2.10;;;;;;;0.89;100.00;100273.95;106036;1257;73075;-57
2024/03/04 04:54:58;;;;;;;7.10;2.20;;;;;;;0.90;100.00;100273.60;106012;1254;66869;-58
2024/03/04 04:57:26;;;;;;;6.70;2.70;;;;;;;0.90;100.00;100273.07;106414;1254;72479;-55
2024/03/04 04:59:53;;;;;;;5.80;2.20;;;;;;;0.88;100.00;100272.54;105967;1260;60651;-56
2024/03/04 05:02:21;;;;;;;8.70;3.00;;;;;;;0.86;100.00;100272.54;106045;1272;59765;-58
2024/03/04 05:04:48;;;;;;;6.10;3.50;;;;;;;0.84;100.00;100270.97;105986;1257;73030;-55
2024/03/04 05:07:25;;;;;;;8.20;2.90;;;;;;;0.84;100.00;100269.90;106347;1254;66193;-54
2024/03/04 05:09:54;;;;;;;8.20;3.40;;;;;;;0.85;100.00;100273.44;106115;1260;72808;-54
2024/03/04 05:12:22;;;;;;;7.90;2.10;;;;;;;0.85;100.00;100274.13;106098;1260;60559;-56
2024/03/04 05:14:49;;;;;;;4.20;2.40;;;;;;;0.87;100.00;100272.71;105986;1260;59683;-55
2024/03/04 05:17:17;;;;;;;6.30;2.20;;;;;;;0.91;100.00;100266.54;105945;1254;72242;-56
2024/03/04 05:19:44;;;;;;;6.80;2.70;;;;;;;0.95;100.00;100269.70;106026;1260;66702;-56
2024/03/04 05:22:13;;;;;;;7.20;2.80;;;;;;;1.00;100.00;100269.35;105836;1260;72836;-55
2024/03/04 05:24:41;;;;;;;5.70;2.80;;;;;;;1.02;100.00;100270.93;106437;1260;59653;-59
2024/03/04 05:27:08;;;;;;;5.70;2.80;;;;;;;1.06;100.00;100269.86;105905;1261;59704;-57
2024/03/04 05:29:36;;;;;;;5.40;2.20;;;;;;;1.08;100.00;100271.47;106243;1256;72850;-57
2024/03/04 05:32:04;;;;;;;9.60;3.40;;;;;;;1.09;100.00;100270.76;106214;1253;66202;-57
2024/03/04 05:34:32;;;;;;;5.00;2.60;;;;;;;1.10;100.00;100271.29;106649;1254;71317;-57
2024/03/04 05:37:00;;;;;;;7.00;2.50;;;;;;;1.11;100.00;100270.55;106558;1257;59988;-56
2024/03/04 05:39:31;;;;;;;3.90;1.90;;;;;;;1.14;100.00;100274.45;106230;1253;60088;-57
2024/03/04 05:41:59;;;;;;;3.90;2.70;;;;;;;1.17;100.00;100275.16;109136;1251;73506;-56
2024/03/04 05:44:26;;;;;;;9.10;2.70;;;;;;;1.20;100.00;100276.55;107382;1256;66324;-57
2024/03/04 05:46:54;;;;;;;8.90;2.50;;;;;;;1.23;100.00;100273.38;106171;1254;71505;-57
2024/03/04 05:49:21;;;;;;;5.40;2.70;;;;;;;1.26;100.00;100276.55;106229;1252;60649;-57
2024/03/04 05:51:48;;;;;;;6.70;2.60;;;;;;;1.31;100.00;100283.06;106256;1251;60084;-57
2024/03/04 05:54:16;;;;;;;6.30;2.80;;;;;;;1.34;100.00;100285.73;106231;1257;73551;-57
2024/03/04 05:56:44;;;;;;;7.60;3.60;;;;;;;1.37;100.00;100280.56;106190;1253;65787;-57
2024/03/04 05:59:11;;;;;;;8.00;3.70;;;;;;;1.40;100.00;100275.27;109145;1253;72647;-57
2024/03/04 06:01:39;;;;;;;10.90;6.30;;;;;;;1.41;100.00;100273.67;109177;1251;59755;-55
2024/03/04 06:04:07;;;;;;;8.40;5.80;;;;;;;1.42;100.00;100271.73;109245;1251;59642;-55
2024/03/04 06:06:34;;;;;;;16.40;4.20;;;;;;;1.43;100.00;100277.21;109192;1254;73069;-56
2024/03/04 06:09:03;;;;;;;11.00;3.80;;;;;;;1.45;100.00;100278.44;108802;1253;69980;-58
2024/03/04 06:11:31;;;;;;;7.10;2.80;;;;;;;1.46;100.00;100279.13;106231;1257;72194;-55
2024/03/04 06:13:59;;;;;;;9.80;3.00;;;;;;;1.49;100.00;100275.23;106289;1251;60102;-55
2024/03/04 06:16:27;;;;;;;7.40;3.30;;;;;;;1.53;100.00;100273.63;106241;1256;61868;-56
2024/03/04 06:18:54;;;;;;;11.50;3.00;;;;;;;1.58;100.00;100271.84;109162;1253;72870;-58
2024/03/04 06:21:21;;;;;;;7.00;3.80;;;;;;;1.63;100.00;100276.42;106308;1257;65517;-57
2024/03/04 06:23:49;;;;;;;6.80;3.70;;;;;;;1.67;100.00;100274.82;106151;1254;72515;-55
2024/03/04 06:26:18;;;;;;;7.00;4.30;;;;;;;1.72;100.00;100273.38;106281;1254;60336;-55
2024/03/04 06:28:45;;;;;;;9.60;5.40;;;;;;;1.77;100.00;100273.00;106284;1256;60415;-55
2024/03/04 06:31:13;;;;;;;13.10;5.00;;;;;;;1.81;100.00;100274.92;106128;1258;74325;-55
2024/03/04 06:33:40;;;;;;;13.30;5.30;;;;;;;1.84;100.00;100276.86;106202;1254;66876;-55
2024/03/04 06:36:19;;;;;;;7.20;4.20;;;;;;;1.89;100.00;100278.42;106668;1256;72527;-57
2024/03/04 06:38:48;;;;;;;8.30;4.60;;;;;;;1.93;100.00;100276.30;106289;1251;61323;-55
2024/03/04 06:41:15;;;;;;;7.60;4.30;;;;;;;1.96;100.00;100272.91;106298;1251;60112;-56
2024/03/04 06:43:43;;;;;;;10.00;4.10;;;;;;;1.99;100.00;100270.05;106260;1257;73896;-55
2024/03/04 06:46:11;;;;;;;11.00;5.00;;;;;;;2.03;100.00;100271.11;107338;1256;66725;-57
2024/03/04 06:48:38;;;;;;;7.80;4.50;;;;;;;2.09;100.00;100276.56;106443;1253;71063;-55
2024/03/04 06:51:06;;;;;;;10.20;4.90;;;;;;;2.15;100.00;100278.28;106228;1251;60444;-54
2024/03/04 06:53:33;;;;;;;8.50;5.00;;;;;;;2.21;100.00;100271.17;106393;1254;60894;-55
2024/03/04 06:56:01;;;;;;;13.90;4.80;;;;;;;2.26;100.00;100267.95;106334;1257;74203;-55
2024/03/04 06:58:28;;;;;;;10.00;5.90;;;;;;;2.34;100.00;100273.56;106289;1257;65945;-55
2024/03/04 07:00:55;;;;;;;13.10;5.70;;;;;;;2.39;100.00;100268.04;106288;1267;73160;-56
2024/03/04 07:03:23;;;;;;;12.40;5.50;;;;;;;2.42;100.00;100268.55;106354;1254;60502;-55
2024/03/04 07:05:50;;;;;;;9.20;5.70;;;;;;;2.46;100.00;100264.27;106358;1256;60482;-56
2024/03/04 07:08:17;;;;;;;15.40;6.30;;;;;;;2.48;100.00;100265.30;106359;1257;73307;-55
2024/03/04 07:10:45;;;;;;;10.40;6.10;;;;;;;2.49;100.00;100264.59;106328;1251;65581;-55
2024/03/04 07:13:12;;;;;;;11.40;5.40;;;;;;;2.51;100.00;100260.69;106357;1251;72904;-57
2024/03/04 07:15:41;;;;;;;11.80;5.70;;;;;;;2.53;100.00;100260.66;106588;1254;60936;-57
2024/03/04 07:18:08;;;;;;;9.90;5.50;;;;;;;2.58;100.00;100262.21;106289;1257;61399;-59
2024/03/04 07:20:36;;;;;;;12.60;5.70;;;;;;;2.65;100.00;100263.59;106233;1256;73910;-56
2024/03/04 07:23:04;;;;;;;9.60;5.70;;;;;;;2.74;100.00;100263.52;106166;1254;67065;-55
2024/03/04 07:25:31;;;;;;;9.60;5.90;;;;;;;2.83;100.00;100259.17;106227;1256;70470;-54
2024/03/04 07:27:59;;;;;;;9.80;6.10;;;;;;;2.91;100.00;100262.47;106263;1251;60479;-60
2024/03/04 07:30:26;;;;;;;12.50;6.60;;;;;;;3.00;100.00;100256.70;106244;1256;60320;-57
2024/03/04 07:32:53;;;;;;;9.20;6.70;;;;;;;3.11;100.00;100251.46;106183;1257;72813;-57
2024/03/04 07:35:21;;;;;;;12.20;6.40;;;;;;;3.20;100.00;100248.88;106200;1261;66054;-57
2024/03/04 07:37:48;;;;;;;16.10;6.50;;;;;;;3.28;100.00;100254.65;106137;1256;72734;-56
2024/03/04 07:40:15;;;;;;;11.80;6.10;;;;;;;3.38;100.00;100259.68;106824;1257;62130;-55
2024/03/04 07:42:43;;;;;;;14.20;7.90;;;;;;;3.49;100.00;100263.46;106284;1254;60504;-56
2024/03/04 07:45:10;;;;;;;15.50;7.70;;;;;;;3.61;100.00;100262.08;106301;1257;72609;-55
2024/03/04 07:47:38;;;;;;;15.90;7.20;;;;;;;3.70;100.00;100267.98;106186;1256;66857;-54
2024/03/04 07:50:06;;;;;;;10.50;6.70;;;;;;;3.80;100.00;100267.70;106181;1254;71186;-57
2024/03/04 07:52:33;;;;;;;10.90;5.70;;;;;;;3.89;100.00;100265.45;106526;1257;61419;-58
2024/03/04 07:55:01;;;;;;;12.40;6.20;;;;;;;3.97;100.00;100260.38;106342;1256;60958;-55
2024/03/04 07:57:30;;;;;;;17.90;6.60;;;;;;;4.08;100.00;100262.35;106361;1257;73819;-56
2024/03/04 07:59:57;;;;;;;11.80;7.00;;;;;;;4.18;100.00;100255.27;106243;1253;69054;-59
2024/03/04 08:02:25;;;;;;;9.40;6.20;;;;;;;4.26;100.00;100250.38;106125;1257;73091;-58
2024/03/04 08:04:52;;;;;;;12.50;7.10;;;;;;;4.31;100.00;100248.52;106214;1257;60443;-57
2024/03/04 08:07:20;;;;;;;11.60;7.70;;;;;;;4.37;100.00;100253.04;106432;1257;62152;-58
2024/03/04 08:09:47;;;;;;;12.20;7.20;;;;;;;4.43;100.00;100253.66;106287;1251;73805;-57
2024/03/04 08:12:15;;;;;;;15.40;7.90;;;;;;;4.49;100.00;100258.20;106139;1256;66756;-58
2024/03/04 08:14:43;;;;;;;11.80;7.30;;;;;;;4.54;100.00;100249.05;106253;1254;72704;-58
2024/03/04 08:17:11;;;;;;;14.70;7.10;;;;;;;4.59;100.00;100249.14;106194;1254;60701;-59
2024/03/04 08:19:38;;;;;;;17.50;9.00;;;;;;;4.65;100.00;100250.30;106239;1257;61235;-58
2024/03/04 08:22:06;;;;;;;13.50;8.90;;;;;;;4.71;100.00;100250.37;106592;1256;72618;-58
2024/03/04 08:24:33;;;;;;;15.80;7.50;;;;;;;4.76;100.00;100244.77;106379;1254;65102;-59
2024/03/04 08:27:01;;;;;;;16.20;9.50;;;;;;;4.83;100.00;100246.44;106250;1257;72780;-58
2024/03/04 08:29:28;;;;;;;14.70;8.30;;;;;;;4.90;100.00;100244.71;106287;1258;59330;-58
2024/03/04 08:31:56;;;;;;;16.00;6.80;;;;;;;4.99;100.00;100245.09;106614;1251;60485;-59
2024/03/04 08:34:23;;;;;;;12.40;7.90;;;;;;;5.09;100.00;100240.09;106176;1256;73057;-58
2024/03/04 08:36:50;;;;;;;13.50;8.20;;;;;;;5.21;100.00;100238.09;106204;1256;67725;-57
2024/03/04 08:39:18;;;;;;;14.60;9.30;;;;;;;5.35;100.00;100234.80;106249;1254;72777;-58
2024/03/04 08:41:45;;;;;;;10.30;7.80;;;;;;;5.46;100.00;100231.92;106287;1254;62024;-57
2024/03/04 08:44:13;;;;;;;16.30;8.90;;;;;;;5.56;100.00;100229.75;106480;1256;62129;-58
2024/03/04 08:46:41;;;;;;;12.50;8.90;;;;;;;5.68;100.00;100229.14;106259;1257;74213;-57
2024/03/04 08:49:09;;;;;;;11.80;8.00;;;;;;;5.80;100.00;100229.06;106606;1254;65654;-59
2024/03/04 08:51:38;;;;;;;17.60;9.70;;;;;;;5.91;100.00;100233.29;106233;1254;72723;-59
2024/03/04 08:54:06;;;;;;;15.80;9.30;;;;;;;6.01;100.00;100230.25;109188;1253;60202;-57
2024/03/04 08:56:34;;;;;;;11.00;7.80;;;;;;;6.08;100.00;100233.46;109208;1253;59273;-56
2024/03/04 08:59:01;;;;;;;17.60;8.30;;;;;;;6.15;100.00;100226.72;109245;1251;73896;-57
2024/03/04 09:01:31;;;;;;;11.20;7.20;;;;;;;6.23;100.00;100225.30;107536;1256;67284;-58
2024/03/04 09:03:59;;;;;;;15.20;7.90;;;;;;;6.32;100.00;100224.36;108479;1254;71647;-56
2024/03/04 09:06:27;;;;;;;11.50;8.40;;;;;;;6.41;100.00;100222.38;109315;1251;61583;-58
2024/03/04 09:08:56;;;;;;;13.10;8.10;;;;;;;6.46;100.00;100223.31;109208;1252;59161;-58
2024/03/04 09:11:24;;;;;;;12.60;7.90;;;;;;;6.50;100.00;100221.60;109175;1253;74090;-58
2024/03/04 09:13:55;;;;;;;12.60;7.50;;;;;;;6.54;100.00;100218.30;109249;1254;66679;-57
2024/03/04 09:16:23;;;;;;;20.90;14.10;;;;;;;6.57;100.00;100219.83;109210;1254;74865;-58
2024/03/04 09:18:51;;;;;;;111.80;65.80;;;;;;;6.59;100.00;100217.29;109274;1252;59757;-58
2024/03/04 09:21:18;;;;;;;73.90;44.40;;;;;;;6.63;100.00;100211.66;109231;1251;59212;-60
2024/03/04 09:23:47;;;;;;;24.50;14.90;;;;;;;6.68;100.00;100209.58;109135;1251;71998;-57
2024/03/04 09:26:15;;;;;;;24.70;12.60;;;;;;;6.71;100.00;100206.64;109324;1251;65664;-58
2024/03/04 09:28:50;;;;;;;8.40;7.60;;;;;;;6.76;100.00;100210.08;109072;1254;71399;-56
2024/03/04 09:31:18;;;;;;;14.40;8.60;;;;;;;6.81;100.00;100200.84;109293;1253;58580;-57
2024/03/04 09:33:46;;;;;;;13.00;8.50;;;;;;;6.89;100.00;100196.38;109237;1256;60067;-57
2024/03/04 09:36:16;;;;;;;12.70;7.90;;;;;;;6.97;100.00;100194.20;108750;1256;73077;-56
2024/03/04 09:38:44;;;;;;;17.90;8.00;;;;;;;7.05;100.00;100194.68;106283;1257;67879;-57
2024/03/04 09:41:11;;;;;;;11.50;7.00;;;;;;;7.13;100.00;100201.98;106278;1257;71453;-57
2024/03/04 09:43:39;;;;;;;8.10;5.60;;;;;;;7.17;100.00;100195.96;106192;1257;60437;-58
2024/03/04 09:46:09;;;;;;;14.50;9.90;;;;;;;7.23;100.00;100197.08;106343;1256;60476;-57
2024/03/04 09:48:38;;;;;;;12.60;7.30;;;;;;;7.29;100.00;100202.59;106720;1254;71808;-58
2024/03/04 09:51:06;;;;;;;68.00;39.20;;;;;;;7.35;100.00;100201.36;106224;1251;68750;-57
2024/03/04 09:53:35;;;;;;;40.90;22.70;;;;;;;7.40;100.00;100202.45;106192;1261;71503;-58
2024/03/04 09:56:04;;;;;;;16.00;9.10;;;;;;;7.47;100.00;100206.21;106265;1259;60598;-57
2024/03/04 09:58:32;;;;;;;10.20;7.60;;;;;;;7.49;100.00;100205.60;106370;1256;60483;-58
2024/03/04 10:01:00;;;;;;;12.90;7.30;;;;;;;7.51;100.00;100195.18;109071;1253;73895;-57
2024/03/04 10:03:28;;;;;;;10.10;6.50;;;;;;;7.52;100.00;100196.39;109248;1254;65656;-58
2024/03/04 10:05:56;;;;;;;8.50;6.30;;;;;;;7.52;100.00;100192.45;109219;1254;70797;-58
2024/03/04 10:08:24;;;;;;;9.90;5.80;;;;;;;7.54;100.00;100192.79;106152;1258;60441;-58
2024/03/04 10:10:52;;;;;;;9.10;6.90;;;;;;;7.57;100.00;100195.71;106405;1254;60351;-59
2024/03/04 10:13:20;;;;;;;11.30;7.40;;;;;;;7.64;100.00;100196.61;106193;1255;72651;-57
2024/03/04 10:15:48;;;;;;;12.80;6.60;;;;;;;7.69;100.00;100191.79;105847;1253;67318;-59
2024/03/04 10:18:16;;;;;;;8.00;5.70;;;;;;;7.73;100.00;100196.89;106282;1256;72752;-58
2024/03/04 10:20:44;;;;;;;12.70;8.80;;;;;;;7.76;100.00;100192.66;106446;1256;60464;-56
2024/03/04 10:23:12;;;;;;;8.20;5.10;;;;;;;7.80;100.00;100190.59;106254;1256;62224;-58
2024/03/04 10:25:40;;;;;;;13.90;10.20;;;;;;;7.83;100.00;100189.59;106347;1256;75704;-59
2024/03/04 10:28:07;;;;;;;21.40;13.80;;;;;;;7.88;100.00;100186.23;106519;1254;67036;-58
2024/03/04 10:30:35;;;;;;;9.60;6.80;;;;;;;7.91;100.00;100185.76;106195;1257;72979;-57
2024/03/04 10:33:03;;;;;;;7.90;6.30;;;;;;;7.92;100.00;100185.01;106180;1270;60619;-57
2024/03/04 10:35:31;;;;;;;7.90;5.50;;;;;;;7.93;100.00;100183.92;106476;1256;60597;-59
2024/03/04 10:38:01;;;;;;;6.20;5.00;;;;;;;7.94;100.00;100178.88;106268;1256;72647;-56
2024/03/04 10:40:29;;;;;;;9.70;5.30;;;;;;;7.97;100.00;100179.33;106673;1256;67222;-59
2024/03/04 10:43:00;;;;;;;8.50;5.60;;;;;;;8.00;100.00;100170.83;106237;1256;72670;-59
2024/03/04 10:45:32;;;;;;;6.40;5.40;;;;;;;8.02;100.00;100173.11;106280;1256;60449;-59
2024/03/04 10:48:03;;;;;;;8.70;5.70;;;;;;;8.03;100.00;100170.58;107289;1256;62264;-58
2024/03/04 10:50:31;;;;;;;5.40;4.90;;;;;;;8.04;100.00;100170.89;106299;1257;73036;-59
2024/03/04 10:52:58;;;;;;;6.10;5.40;;;;;;;8.07;100.00;100169.72;106321;1257;66037;-59
2024/03/04 10:55:31;;;;;;;26.80;16.80;;;;;;;8.10;100.00;100164.96;106302;1260;74925;-58
2024/03/04 10:58:01;;;;;;;23.60;13.70;;;;;;;8.14;100.00;100161.46;106738;1251;60489;-60
2024/03/04 11:00:32;;;;;;;22.00;13.10;;;;;;;8.18;100.00;100160.61;106276;1256;60546;-59
2024/03/04 11:03:04;;;;;;;117.50;66.00;;;;;;;8.23;100.00;100162.61;109101;1253;73943;-59
2024/03/04 11:05:33;;;;;;;74.00;40.50;;;;;;;8.29;100.00;100163.48;106447;1256;65689;-58
2024/03/04 11:08:20;;;;;;;88.60;44.10;;;;;;;8.35;100.00;100159.00;106307;1257;73465;-58
2024/03/04 11:10:49;;;;;;;97.60;47.40;;;;;;;8.43;100.00;100161.45;106318;1254;60542;-59
2024/03/04 11:13:35;;;;;;;62.00;30.00;;;;;;;8.49;100.00;100162.16;106562;1256;60390;-59
2024/03/04 11:16:05;;;;;;;10.90;8.00;;;;;;;8.52;100.00;100162.73;106300;1257;73891;-59
2024/03/04 11:18:41;;;;;;;11.10;5.80;;;;;;;8.53;100.00;100161.63;106313;1260;66651;-59
2024/03/04 11:21:09;;;;;;;8.60;5.20;;;;;;;8.55;100.00;100163.56;106607;1251;72723;-59